Time;durP1;ratioP1;P1;durP2;ratioP2;P2;SDS_P1;SDS_P2;PMS_P1;PMS_P2;Temp;Humidity;BMP_temperature;BMP_pressure;BME280_temperature;BME280_humidity;BME280_pressure;Samples;Min_cycle;Max_cycle;Signal;HPM_P1;HPM_P2
2024/04/19 00:01:36;;;;;;;0.10;0.10;;;;;;;-139.19;100.00;56970.53;5522152;25;20340;-66
2024/04/19 00:04:01;;;;;;;0.10;0.10;;;;;;;-139.19;100.00;56970.53;5519912;26;19997;-66
2024/04/19 00:06:26;;;;;;;0.20;0.20;;;;;;;-139.19;100.00;56970.53;5526112;25;19998;-67
2024/04/19 00:08:52;;;;;;;0.47;0.47;;;;;;;-139.19;100.00;56970.53;5514257;26;20012;-67
2024/04/19 00:11:17;;;;;;;1.17;1.05;;;;;;;-139.19;100.00;56970.53;5512504;26;20008;-66
2024/04/19 00:13:42;;;;;;;0.95;0.50;;;;;;;-139.19;100.00;56970.53;5520519;26;20001;-66
2024/04/19 00:16:08;;;;;;;0.10;0.10;;;;;;;-139.19;100.00;56970.53;5525083;26;19997;-67
2024/04/19 00:18:33;;;;;;;0.30;0.30;;;;;;;-139.19;100.00;56970.53;5514966;26;20342;-66
2024/04/19 00:20:58;;;;;;;0.30;0.30;;;;;;;-139.19;100.00;56970.53;5506267;25;20329;-67
2024/04/19 00:23:24;;;;;;;0.20;0.20;;;;;;;-139.19;100.00;56970.53;5494660;26;20017;-66
2024/04/19 00:25:51;;;;;;;0.95;0.95;;;;;;;-139.19;100.00;56970.53;5505012;26;19993;-66
2024/04/19 00:28:16;;;;;;;0.55;0.47;;;;;;;-139.19;100.00;56970.53;5523881;26;20077;-67
2024/04/19 00:30:42;;;;;;;2.08;0.40;;;;;;;-139.19;100.00;56970.53;5525573;26;20419;-66
2024/04/19 00:33:07;;;;;;;0.30;0.30;;;;;;;-139.19;100.00;56970.53;5525264;26;20001;-66
2024/04/19 00:35:33;;;;;;;0.20;0.20;;;;;;;-139.19;100.00;56970.53;5511142;25;20005;-66
2024/04/19 00:37:58;;;;;;;0.38;0.30;;;;;;;-139.19;100.00;56970.53;5511847;26;19998;-67
2024/04/19 00:40:24;;;;;;;0.68;0.68;;;;;;;-139.19;100.00;56970.53;5526049;26;19994;-66
2024/04/19 00:42:50;;;;;;;0.30;0.30;;;;;;;-139.19;100.00;56970.53;5516849;26;20009;-66
2024/04/19 00:45:35;;;;;;;0.25;0.25;;;;;;;-139.19;100.00;56970.53;5522300;26;20009;-66
2024/04/19 00:48:03;;;;;;;0.10;0.10;;;;;;;-139.19;100.00;56970.53;5517060;26;20058;-66
2024/04/19 00:50:32;;;;;;;0.20;0.20;;;;;;;-139.19;100.00;56970.53;5515259;25;20041;-66
2024/04/19 00:52:59;;;;;;;0.95;0.95;;;;;;;-139.19;100.00;56970.53;5518732;26;19993;-67
2024/04/19 00:55:25;;;;;;;0.47;0.43;;;;;;;-139.19;100.00;56970.53;5522897;26;20026;-66
2024/04/19 00:57:51;;;;;;;0.73;0.73;;;;;;;-139.19;100.00;56970.53;5522467;26;20023;-66
2024/04/19 01:00:17;;;;;;;0.30;0.30;;;;;;;-139.19;100.00;56970.53;5520313;26;20001;-67
2024/04/19 01:02:42;;;;;;;0.20;0.20;;;;;;;-139.19;100.00;56970.53;5526138;26;19993;-66
2024/04/19 01:05:07;;;;;;;0.68;0.68;;;;;;;-139.19;100.00;56970.53;5524245;25;19993;-66
2024/04/19 01:07:33;;;;;;;1.25;0.73;;;;;;;-139.19;100.00;56970.53;5523949;26;20012;-66
2024/04/19 01:09:58;;;;;;;0.22;0.22;;;;;;;-139.19;100.00;56970.53;5504276;26;20078;-66
2024/04/19 01:12:24;;;;;;;0.17;0.17;;;;;;;-139.19;100.00;56970.53;5510399;26;20045;-66
2024/04/19 01:14:49;;;;;;;0.77;0.30;;;;;;;-139.19;100.00;56970.53;5522623;26;20441;-66
2024/04/19 01:17:15;;;;;;;0.40;0.40;;;;;;;-139.19;100.00;56970.53;5523792;26;20005;-66
2024/04/19 01:19:40;;;;;;;0.55;0.55;;;;;;;-139.19;100.00;56970.53;5497650;26;20002;-66
2024/04/19 01:22:06;;;;;;;0.38;0.38;;;;;;;-139.19;100.00;56970.53;5505923;26;20001;-66
2024/04/19 01:24:49;;;;;;;0.35;0.35;;;;;;;-139.19;100.00;56970.53;5492958;26;20074;-67
2024/04/19 01:27:15;;;;;;;0.10;0.10;;;;;;;-139.19;100.00;56970.53;5503232;26;19997;-66
2024/04/19 01:29:40;;;;;;;0.63;0.63;;;;;;;-139.19;100.00;56970.53;5518035;26;20330;-66
2024/04/19 01:32:06;;;;;;;0.50;0.50;;;;;;;-139.19;100.00;56970.53;5510517;25;19997;-66
2024/04/19 01:34:31;;;;;;;0.38;0.38;;;;;;;-139.19;100.00;56970.53;5502924;26;19998;-66
2024/04/19 01:36:57;;;;;;;0.13;0.13;;;;;;;-139.19;100.00;56970.53;5522393;26;19997;-66
2024/04/19 01:39:23;;;;;;;0.40;0.40;;;;;;;-139.19;100.00;56970.53;5526397;26;20020;-66
2024/04/19 01:41:49;;;;;;;0.60;0.60;;;;;;;-139.19;100.00;56970.53;5526304;25;20012;-67
2024/04/19 01:44:14;;;;;;;0.10;0.10;;;;;;;-139.19;100.00;56970.53;5525074;26;20002;-67
2024/04/19 01:46:39;;;;;;;0.08;0.08;;;;;;;-139.19;100.00;56970.53;5522086;26;20012;-66
2024/04/19 01:49:05;;;;;;;0.20;0.20;;;;;;;-139.19;100.00;56970.53;5492942;26;20002;-66
2024/04/19 01:51:30;;;;;;;0.15;0.15;;;;;;;-139.19;100.00;56970.53;5492343;26;20026;-66
2024/04/19 01:53:55;;;;;;;0.30;0.30;;;;;;;-139.19;100.00;56970.53;5525849;26;19997;-66
2024/04/19 01:56:21;;;;;;;0.10;0.10;;;;;;;-139.19;100.00;56970.53;5505386;25;20074;-67
2024/04/19 01:58:46;;;;;;;0.08;0.08;;;;;;;-139.19;100.00;56970.53;5501678;26;20010;-66
2024/04/19 02:01:12;;;;;;;0.10;0.10;;;;;;;-139.19;100.00;56970.53;5502508;26;20006;-67
2024/04/19 02:03:40;;;;;;;0.45;0.45;;;;;;;-139.19;100.00;56970.53;5510830;26;20001;-66
2024/04/19 02:06:12;;;;;;;0.35;0.35;;;;;;;-139.19;100.00;56970.53;5524173;26;20046;-66
2024/04/19 02:08:37;;;;;;;0.15;0.15;;;;;;;-139.19;100.00;56970.53;5521679;25;20002;-66
2024/04/19 02:11:03;;;;;;;1.35;0.55;;;;;;;-139.19;100.00;56970.53;5521711;26;20016;-66
2024/04/19 02:13:29;;;;;;;0.82;0.82;;;;;;;-139.19;100.00;56970.53;5521100;26;20394;-66
2024/04/19 02:15:54;;;;;;;0.17;0.17;;;;;;;-139.19;100.00;56970.53;5521629;26;20016;-66
2024/04/19 02:18:19;;;;;;;0.10;0.10;;;;;;;-139.19;100.00;56970.53;5521744;26;20318;-66
2024/04/19 02:20:45;;;;;;;0.68;0.68;;;;;;;-139.19;100.00;56970.53;5520811;26;20009;-66
2024/04/19 02:23:10;;;;;;;0.17;0.17;;;;;;;-139.19;100.00;56970.53;5522635;26;19997;-66
2024/04/19 02:25:35;;;;;;;0.35;0.35;;;;;;;-139.19;100.00;56970.53;5512946;26;20017;-66
2024/04/19 02:30:52;;;;;;;0.30;0.30;;;;;;;-139.19;100.00;56970.53;5522435;26;20068;-67
2024/04/19 02:33:18;;;;;;;0.25;0.25;;;;;;;-139.19;100.00;56970.53;5520331;26;20076;-66
2024/04/19 02:35:43;;;;;;;0.35;0.35;;;;;;;-139.19;100.00;56970.53;5524161;26;20009;-66
2024/04/19 02:38:09;;;;;;;0.20;0.20;;;;;;;-139.19;100.00;56970.53;5528176;26;20001;-66
2024/04/19 02:40:34;;;;;;;0.47;0.32;;;;;;;-139.19;100.00;56970.53;5517626;26;20014;-67
2024/04/19 02:43:00;;;;;;;1.40;1.08;;;;;;;-139.19;100.00;56970.53;5529736;26;20011;-67
2024/04/19 02:45:25;;;;;;;0.47;0.47;;;;;;;-139.19;100.00;56970.53;5527895;26;20077;-66
2024/04/19 02:47:50;;;;;;;0.10;0.10;;;;;;;-139.19;100.00;56970.53;5516003;26;20013;-67
2024/04/19 02:50:16;;;;;;;0.52;0.52;;;;;;;-139.19;100.00;56970.53;5527029;25;20041;-67
2024/04/19 02:52:41;;;;;;;3.10;0.93;;;;;;;-139.19;100.00;56970.53;5508936;26;20330;-66
2024/04/19 02:55:06;;;;;;;1.40;0.93;;;;;;;-139.19;100.00;56970.53;5510310;26;20407;-67
2024/04/19 02:57:32;;;;;;;0.40;0.40;;;;;;;-139.19;100.00;56970.53;5509784;26;20009;-66
2024/04/19 02:59:57;;;;;;;0.08;0.08;;;;;;;-139.19;100.00;56970.53;5519873;26;20362;-67
2024/04/19 03:02:22;;;;;;;0.30;0.30;;;;;;;-139.19;100.00;56970.53;5511639;26;20012;-66
2024/04/19 03:04:48;;;;;;;0.10;0.10;;;;;;;-139.19;100.00;56970.53;5516175;26;20346;-67
2024/04/19 03:07:13;;;;;;;0.10;0.10;;;;;;;-139.19;100.00;56970.53;5520906;25;20029;-67
2024/04/19 03:09:39;;;;;;;0.28;0.28;;;;;;;-139.19;100.00;56970.53;5523784;26;20333;-66
2024/04/19 03:12:04;;;;;;;0.30;0.30;;;;;;;-139.19;100.00;56970.53;5513106;26;20073;-66
2024/04/19 03:14:30;;;;;;;0.17;0.17;;;;;;;-139.19;100.00;56970.53;5500092;26;20016;-67
2024/04/19 03:16:55;;;;;;;0.40;0.40;;;;;;;-139.19;100.00;56970.53;5498009;26;20350;-67
2024/04/19 03:19:20;;;;;;;1.17;0.57;;;;;;;-139.19;100.00;56970.53;5502361;26;20414;-66
2024/04/19 03:21:46;;;;;;;0.60;0.60;;;;;;;-139.19;100.00;56970.53;5513158;25;20005;-67
2024/04/19 03:24:11;;;;;;;0.25;0.25;;;;;;;-139.19;100.00;56970.53;5495836;26;20433;-66
2024/04/19 03:26:36;;;;;;;0.20;0.20;;;;;;;-139.19;100.00;56970.53;5500031;26;20010;-66
2024/04/19 03:29:02;;;;;;;0.40;0.40;;;;;;;-139.19;100.00;56970.53;5520572;26;20016;-67
2024/04/19 03:31:27;;;;;;;0.13;0.13;;;;;;;-139.19;100.00;56970.53;5525240;25;20002;-67
2024/04/19 03:33:52;;;;;;;0.08;0.08;;;;;;;-139.19;100.00;56970.53;5525392;26;19997;-66
2024/04/19 03:36:17;;;;;;;0.10;0.10;;;;;;;-139.19;100.00;56970.53;5522378;26;19993;-67
2024/04/19 03:38:45;;;;;;;0.30;0.30;;;;;;;-139.19;100.00;56970.53;5511175;26;20001;-66
2024/04/19 03:41:10;;;;;;;0.40;0.40;;;;;;;-139.19;100.00;56970.53;5494294;26;20042;-67
2024/04/19 03:43:41;;;;;;;0.93;0.80;;;;;;;-139.19;100.00;56970.53;5509203;26;19997;-67
2024/04/19 03:46:07;;;;;;;0.98;0.50;;;;;;;-139.19;100.00;56970.53;5496529;26;20010;-66
2024/04/19 03:48:32;;;;;;;0.38;0.28;;;;;;;-139.19;100.00;56970.53;5507287;26;20002;-67
2024/04/19 03:50:58;;;;;;;1.13;0.73;;;;;;;-139.19;100.00;56970.53;5525018;26;20023;-67
2024/04/19 03:53:23;;;;;;;0.45;0.30;;;;;;;-139.19;100.00;56970.53;5506958;26;20009;-66
2024/04/19 03:55:49;;;;;;;0.10;0.10;;;;;;;-139.19;100.00;56970.53;5513928;26;19997;-67
2024/04/19 03:58:14;;;;;;;0.20;0.20;;;;;;;-139.19;100.00;56970.53;5519049;26;20005;-66
2024/04/19 04:00:39;;;;;;;0.17;0.17;;;;;;;-139.19;100.00;56970.53;5522631;26;20013;-67
2024/04/19 04:03:06;;;;;;;0.10;0.10;;;;;;;-139.19;100.00;56970.53;5515478;26;20002;-66
2024/04/19 04:05:31;;;;;;;0.25;0.25;;;;;;;-139.19;100.00;56970.53;5501862;26;20440;-67
2024/04/19 04:07:56;;;;;;;0.30;0.30;;;;;;;-139.19;100.00;56970.53;5494084;26;19997;-67
2024/04/19 04:10:22;;;;;;;0.17;0.17;;;;;;;-139.19;100.00;56970.53;5514971;26;19997;-66
2024/04/19 04:12:49;;;;;;;0.38;0.38;;;;;;;-139.19;100.00;56970.53;5519966;25;20001;-67
2024/04/19 04:15:14;;;;;;;0.00;0.00;;;;;;;-139.19;100.00;56970.53;5517122;26;20120;-66
2024/04/19 04:17:40;;;;;;;0.22;0.22;;;;;;;-139.19;100.00;56970.53;5514427;26;20001;-66
2024/04/19 04:20:05;;;;;;;0.10;0.10;;;;;;;-139.19;100.00;56970.53;5524485;26;19998;-66
2024/04/19 04:22:31;;;;;;;0.20;0.20;;;;;;;-139.19;100.00;56970.53;5513000;26;19997;-66
2024/04/19 04:24:56;;;;;;;0.75;0.75;;;;;;;-139.19;100.00;56970.53;5526993;26;20069;-67
2024/04/19 04:27:21;;;;;;;0.10;0.10;;;;;;;-139.19;100.00;56970.53;5510543;25;20366;-67
2024/04/19 04:29:47;;;;;;;0.20;0.20;;;;;;;-139.19;100.00;56970.53;5517233;26;20310;-67
2024/04/19 04:32:12;;;;;;;0.25;0.25;;;;;;;-139.19;100.00;56970.53;5523153;26;20025;-67
2024/04/19 04:34:37;;;;;;;0.20;0.20;;;;;;;-139.19;100.00;56970.53;5517638;26;20069;-67
2024/04/19 04:37:03;;;;;;;0.13;0.13;;;;;;;-139.19;100.00;56970.53;5509972;26;20009;-67
2024/04/19 04:39:28;;;;;;;0.40;0.40;;;;;;;-139.19;100.00;56970.53;5517553;25;19994;-66
2024/04/19 04:41:54;;;;;;;0.47;0.40;;;;;;;-139.19;100.00;56970.53;5520513;26;19993;-66
2024/04/19 04:44:19;;;;;;;0.00;0.00;;;;;;;-139.19;100.00;56970.53;5507605;26;20390;-74
2024/04/19 04:46:44;;;;;;;0.75;0.75;;;;;;;-139.19;100.00;56970.53;5520280;26;20016;-64
2024/04/19 04:49:10;;;;;;;0.40;0.40;;;;;;;-139.19;100.00;56970.53;5527590;26;19997;-64
2024/04/19 04:51:35;;;;;;;0.20;0.20;;;;;;;-139.19;100.00;56970.53;5528188;26;19993;-64
2024/04/19 04:54:01;;;;;;;0.20;0.20;;;;;;;-139.19;100.00;56970.53;5527302;26;20001;-64
2024/04/19 04:56:26;;;;;;;0.80;0.80;;;;;;;-139.19;100.00;56970.53;5525631;26;20441;-64
2024/04/19 04:58:52;;;;;;;0.10;0.10;;;;;;;-139.19;100.00;56970.53;5525315;26;20031;-64
2024/04/19 05:01:17;;;;;;;0.30;0.30;;;;;;;-139.19;100.00;56970.53;5526928;26;20021;-64
2024/04/19 05:03:46;;;;;;;0.38;0.38;;;;;;;-139.19;100.00;56970.53;5527674;26;19997;-64
2024/04/19 05:06:13;;;;;;;0.45;0.45;;;;;;;-139.19;100.00;56970.53;5527145;25;20027;-64
2024/04/19 05:08:38;;;;;;;0.30;0.30;;;;;;;-139.19;100.00;56970.53;5526306;26;19997;-64
2024/04/19 05:11:03;;;;;;;0.20;0.20;;;;;;;-139.19;100.00;56970.53;5527176;26;20008;-64
2024/04/19 05:13:29;;;;;;;0.57;0.52;;;;;;;-139.19;100.00;56970.53;5527407;26;20332;-64
2024/04/19 05:15:54;;;;;;;0.10;0.10;;;;;;;-139.19;100.00;56970.53;5526603;25;20031;-64
2024/04/19 05:18:19;;;;;;;0.20;0.20;;;;;;;-139.19;100.00;56970.53;5527070;26;20001;-64
2024/04/19 05:20:46;;;;;;;0.10;0.10;;;;;;;-139.19;100.00;56970.53;5527530;26;19994;-64
2024/04/19 05:23:11;;;;;;;0.17;0.17;;;;;;;-139.19;100.00;56970.53;5527173;25;20077;-64
2024/04/19 05:25:37;;;;;;;0.10;0.10;;;;;;;-139.19;100.00;56970.53;5527747;25;20387;-64
2024/04/19 05:28:03;;;;;;;0.30;0.30;;;;;;;-139.19;100.00;56970.53;5521908;25;20016;-64
2024/04/19 05:30:28;;;;;;;0.10;0.10;;;;;;;-139.19;100.00;56970.53;5521571;26;20373;-64
2024/04/19 05:32:53;;;;;;;0.10;0.10;;;;;;;-139.19;100.00;56970.53;5496157;26;20009;-64
2024/04/19 05:35:19;;;;;;;0.10;0.10;;;;;;;-139.19;100.00;56970.53;5490473;26;20067;-64
2024/04/19 05:37:44;;;;;;;1.13;0.63;;;;;;;-139.19;100.00;56970.53;5490608;26;20001;-64
2024/04/19 05:40:10;;;;;;;0.65;0.50;;;;;;;-139.19;100.00;56970.53;5504551;26;20453;-64
2024/04/19 05:42:35;;;;;;;1.17;0.63;;;;;;;-139.19;100.00;56970.53;5525973;26;20001;-64
2024/04/19 05:45:02;;;;;;;0.65;0.60;;;;;;;-139.19;100.00;56970.53;5516138;25;19997;-64
2024/04/19 05:47:27;;;;;;;0.25;0.25;;;;;;;-139.19;100.00;56970.53;5524730;26;20046;-64
2024/04/19 05:49:52;;;;;;;0.10;0.10;;;;;;;-139.19;100.00;56970.53;5525269;26;20124;-66
2024/04/19 05:52:18;;;;;;;0.47;0.47;;;;;;;-139.19;100.00;56970.53;5524087;26;20037;-66
2024/04/19 05:54:43;;;;;;;0.63;0.63;;;;;;;-139.19;100.00;56970.53;5525921;26;20029;-66
2024/04/19 05:57:08;;;;;;;0.20;0.20;;;;;;;-139.19;100.00;56970.53;5524030;26;20345;-66
2024/04/19 05:59:34;;;;;;;10.68;0.73;;;;;;;-139.19;100.00;56970.53;5524968;26;20395;-66
2024/04/19 06:02:00;;;;;;;0.25;0.25;;;;;;;-139.19;100.00;56970.53;5507523;25;20438;-66
2024/04/19 06:04:25;;;;;;;0.75;0.75;;;;;;;-139.19;100.00;56970.53;5489885;26;20030;-66
2024/04/19 06:06:51;;;;;;;0.22;0.22;;;;;;;-139.19;100.00;56970.53;5523587;26;19997;-66
2024/04/19 06:09:16;;;;;;;0.10;0.10;;;;;;;-139.19;100.00;56970.53;5526565;26;20571;-66
2024/04/19 06:11:41;;;;;;;0.22;0.22;;;;;;;-139.19;100.00;56970.53;5525277;26;20318;-66
2024/04/19 06:14:07;;;;;;;0.40;0.40;;;;;;;-139.19;100.00;56970.53;5526203;26;20017;-66
2024/04/19 06:16:32;;;;;;;0.10;0.10;;;;;;;-139.19;100.00;56970.53;5526496;26;20065;-66
2024/04/19 06:18:57;;;;;;;0.15;0.15;;;;;;;-139.19;100.00;56970.53;5527014;26;20012;-66
2024/04/19 06:21:23;;;;;;;1.38;0.65;;;;;;;-139.19;100.00;56970.53;5526529;25;20020;-66
2024/04/19 06:23:48;;;;;;;0.75;0.75;;;;;;;-139.19;100.00;56970.53;5526208;25;19994;-66
2024/04/19 06:26:13;;;;;;;0.10;0.10;;;;;;;-139.19;100.00;56970.53;5526512;25;20001;-66
2024/04/19 06:28:40;;;;;;;0.75;0.75;;;;;;;-139.19;100.00;56970.53;5526187;25;20349;-66
2024/04/19 06:31:10;;;;;;;0.20;0.20;;;;;;;-139.19;100.00;56970.53;5526529;25;20012;-66
2024/04/19 06:33:36;;;;;;;0.55;0.55;;;;;;;-139.19;100.00;56970.53;5526236;25;20020;-66
2024/04/19 06:36:02;;;;;;;0.15;0.15;;;;;;;-139.19;100.00;56970.53;5526238;25;20453;-66
2024/04/19 06:38:27;;;;;;;0.40;0.40;;;;;;;-139.19;100.00;56970.53;5526345;26;20057;-66
2024/04/19 06:40:53;;;;;;;0.43;0.43;;;;;;;-139.19;100.00;56970.53;5526096;26;19997;-66
2024/04/19 06:43:19;;;;;;;0.55;0.55;;;;;;;-139.19;100.00;56970.53;5526171;26;20069;-66
2024/04/19 06:45:44;;;;;;;0.30;0.30;;;;;;;-139.19;100.00;56970.53;5523714;26;20429;-66
2024/04/19 06:48:10;;;;;;;0.20;0.20;;;;;;;-139.19;100.00;56970.53;5516316;26;19998;-66
2024/04/19 06:50:35;;;;;;;0.10;0.10;;;;;;;-139.19;100.00;56970.53;5510593;26;20013;-67
2024/04/19 06:53:01;;;;;;;0.22;0.22;;;;;;;-139.19;100.00;56970.53;5523035;26;20441;-66
2024/04/19 06:55:26;;;;;;;0.43;0.43;;;;;;;-139.19;100.00;56970.53;5525420;26;20073;-66
2024/04/19 06:57:55;;;;;;;0.10;0.10;;;;;;;-139.19;100.00;56970.53;5525914;25;20062;-66
2024/04/19 07:00:21;;;;;;;0.10;0.10;;;;;;;-139.19;100.00;56970.53;5526080;25;20002;-66
2024/04/19 07:02:49;;;;;;;0.20;0.20;;;;;;;-139.19;100.00;56970.53;5525534;26;20005;-66
2024/04/19 07:05:15;;;;;;;0.35;0.35;;;;;;;-139.19;100.00;56970.53;5507865;26;20002;-66
2024/04/19 07:07:40;;;;;;;0.35;0.35;;;;;;;-139.19;100.00;56970.53;5505677;26;20441;-66
2024/04/19 07:10:06;;;;;;;0.10;0.10;;;;;;;-139.19;100.00;56970.53;5521510;26;20001;-66
2024/04/19 07:12:32;;;;;;;1.15;0.30;;;;;;;-139.19;100.00;56970.53;5522306;26;20019;-66
2024/04/19 07:14:57;;;;;;;0.10;0.10;;;;;;;-139.19;100.00;56970.53;5514522;26;20240;-66
2024/04/19 07:17:22;;;;;;;0.32;0.32;;;;;;;-139.19;100.00;56970.53;5516690;25;20009;-66
2024/04/19 07:19:48;;;;;;;0.52;0.45;;;;;;;-139.19;100.00;56970.53;5523486;26;20033;-65
2024/04/19 07:22:14;;;;;;;0.35;0.35;;;;;;;-139.19;100.00;56970.53;5526263;26;20001;-65
2024/04/19 07:24:39;;;;;;;0.25;0.25;;;;;;;-139.19;100.00;56970.53;5528190;26;20001;-66
2024/04/19 07:27:05;;;;;;;0.20;0.20;;;;;;;-139.19;100.00;56970.53;5529299;25;20132;-66
2024/04/19 07:29:30;;;;;;;0.10;0.10;;;;;;;-139.19;100.00;56970.53;5528875;26;20478;-66
2024/04/19 07:31:56;;;;;;;0.20;0.20;;;;;;;-139.19;100.00;56970.53;5527217;26;20330;-66
2024/04/19 07:34:21;;;;;;;0.35;0.35;;;;;;;-139.19;100.00;56970.53;5527698;25;19994;-66
2024/04/19 07:36:46;;;;;;;0.43;0.43;;;;;;;-139.19;100.00;56970.53;5527254;26;20449;-66
2024/04/19 07:39:12;;;;;;;0.30;0.30;;;;;;;-139.19;100.00;56970.53;5528889;26;19998;-66
2024/04/19 07:41:37;;;;;;;0.40;0.40;;;;;;;-139.19;100.00;56970.53;5529130;26;19993;-66
2024/04/19 07:44:02;;;;;;;0.10;0.10;;;;;;;-139.19;100.00;56970.53;5527281;26;19997;-66
2024/04/19 07:46:28;;;;;;;0.28;0.28;;;;;;;-139.19;100.00;56970.53;5528959;26;20008;-66
2024/04/19 07:48:53;;;;;;;0.20;0.20;;;;;;;-139.19;100.00;56970.53;5527847;25;20008;-66
2024/04/19 07:51:18;;;;;;;0.10;0.10;;;;;;;-139.19;100.00;56970.53;5527819;25;19994;-66
2024/04/19 07:53:44;;;;;;;0.32;0.32;;;;;;;-139.19;100.00;56970.53;5528669;25;19997;-66
2024/04/19 07:56:09;;;;;;;0.85;0.73;;;;;;;-139.19;100.00;56970.53;5528965;25;19993;-66
2024/04/19 07:58:34;;;;;;;0.57;0.40;;;;;;;-139.19;100.00;56970.53;5527981;25;19998;-66
2024/04/19 08:01:00;;;;;;;0.28;0.28;;;;;;;-139.19;100.00;56970.53;5528703;26;20001;-66
2024/04/19 08:03:25;;;;;;;0.10;0.10;;;;;;;-139.19;100.00;56970.53;5527952;26;20012;-66
2024/04/19 08:05:50;;;;;;;0.82;0.80;;;;;;;-139.19;100.00;56970.53;5527949;26;20001;-66
2024/04/19 08:08:16;;;;;;;0.20;0.20;;;;;;;-139.19;100.00;56970.53;5527097;26;20008;-68
2024/04/19 08:10:41;;;;;;;0.30;0.30;;;;;;;-139.19;100.00;56970.53;5526474;26;20009;-66
2024/04/19 08:13:08;;;;;;;0.32;0.28;;;;;;;-139.19;100.00;56970.53;5527156;26;20008;-66
2024/04/19 08:15:34;;;;;;;0.10;0.10;;;;;;;-139.19;100.00;56970.53;5528188;26;20009;-66
2024/04/19 08:17:59;;;;;;;0.10;0.10;;;;;;;-139.19;100.00;56970.53;5528230;26;20009;-66
2024/04/19 08:20:24;;;;;;;0.38;0.38;;;;;;;-139.19;100.00;56970.53;5528398;25;19997;-66
2024/04/19 08:22:50;;;;;;;0.08;0.08;;;;;;;-139.19;100.00;56970.53;5527256;26;20009;-66
2024/04/19 08:25:15;;;;;;;0.98;0.95;;;;;;;-139.19;100.00;56970.53;5527420;26;20429;-77
2024/04/19 08:27:40;;;;;;;0.20;0.20;;;;;;;-139.19;100.00;56970.53;5526335;26;20001;-77
2024/04/19 08:30:06;;;;;;;0.05;0.05;;;;;;;-139.19;100.00;56970.53;5527948;26;20006;-78
2024/04/19 08:32:32;;;;;;;0.10;0.10;;;;;;;-139.19;100.00;56970.53;5528044;26;20005;-78
2024/04/19 08:34:58;;;;;;;0.22;0.22;;;;;;;-139.19;100.00;56970.53;5523627;26;20006;-77
2024/04/19 08:37:24;;;;;;;0.35;0.35;;;;;;;-139.19;100.00;56970.53;5509446;26;19998;-77
2024/04/19 08:39:53;;;;;;;0.15;0.15;;;;;;;-139.19;100.00;56970.53;5515403;25;20016;-64
2024/04/19 08:42:20;;;;;;;0.10;0.10;;;;;;;-139.19;100.00;56970.53;5527551;25;20446;-65
2024/04/19 08:44:48;;;;;;;0.20;0.20;;;;;;;-139.19;100.00;56970.53;5519984;26;20001;-65
2024/04/19 08:47:17;;;;;;;0.25;0.25;;;;;;;-139.19;100.00;56970.53;5514999;26;20014;-64
2024/04/19 08:49:43;;;;;;;0.82;0.82;;;;;;;-139.19;100.00;56970.53;5511460;26;20421;-65
2024/04/19 08:52:10;;;;;;;0.05;0.05;;;;;;;-139.19;100.00;56970.53;5525761;25;20461;-65
2024/04/19 08:54:36;;;;;;;0.10;0.10;;;;;;;-139.19;100.00;56970.53;5526964;25;20001;-65
2024/04/19 08:57:04;;;;;;;0.08;0.08;;;;;;;-139.19;100.00;56970.53;5521241;26;20021;-65
2024/04/19 08:59:31;;;;;;;0.40;0.30;;;;;;;-139.19;100.00;56970.53;5517303;26;19993;-65
2024/04/19 09:01:57;;;;;;;0.10;0.10;;;;;;;-139.19;100.00;56970.53;5526267;26;20069;-65
2024/04/19 09:04:22;;;;;;;0.10;0.10;;;;;;;-139.19;100.00;56970.53;5526097;26;19997;-65
2024/04/19 09:06:48;;;;;;;0.08;0.08;;;;;;;-139.19;100.00;56970.53;5527314;26;20001;-65
2024/04/19 09:09:15;;;;;;;0.20;0.20;;;;;;;-139.19;100.00;56970.53;5527053;25;20025;-65
2024/04/19 09:11:41;;;;;;;0.20;0.20;;;;;;;-139.19;100.00;56970.53;5520233;26;20016;-65
2024/04/19 09:14:06;;;;;;;0.55;0.35;;;;;;;-139.19;100.00;56970.53;5526236;26;19993;-65
2024/04/19 09:16:32;;;;;;;0.10;0.10;;;;;;;-139.19;100.00;56970.53;5526832;26;20007;-65
2024/04/19 09:18:58;;;;;;;0.08;0.08;;;;;;;-139.19;100.00;56970.53;5526669;26;20293;-65
2024/04/19 09:21:26;;;;;;;0.20;0.20;;;;;;;-139.19;100.00;56970.53;5523800;26;20001;-65
2024/04/19 09:23:51;;;;;;;0.30;0.30;;;;;;;-139.19;100.00;56970.53;5525994;26;20074;-65
2024/04/19 09:26:18;;;;;;;0.10;0.10;;;;;;;-139.19;100.00;56970.53;5526777;25;19997;-65
2024/04/19 09:28:43;;;;;;;0.13;0.13;;;;;;;-139.19;100.00;56970.53;5526159;25;20445;-65
2024/04/19 09:31:09;;;;;;;0.10;0.10;;;;;;;-139.19;100.00;56970.53;5525812;25;20081;-65
2024/04/19 09:33:36;;;;;;;1.00;0.45;;;;;;;-139.19;100.00;56970.53;5526239;25;19997;-65
2024/04/19 09:36:03;;;;;;;0.13;0.13;;;;;;;-139.19;100.00;56970.53;5522648;26;20006;-65
2024/04/19 09:38:29;;;;;;;0.20;0.20;;;;;;;-139.19;100.00;56970.53;5522018;26;20001;-65
2024/04/19 09:40:55;;;;;;;0.25;0.25;;;;;;;-139.19;100.00;56970.53;5522620;25;20461;-65
2024/04/19 09:43:23;;;;;;;0.30;0.30;;;;;;;-139.19;100.00;56970.53;5522546;25;20001;-65
2024/04/19 09:45:56;;;;;;;1.08;0.68;;;;;;;-139.19;100.00;56970.53;5523118;26;20001;-65
2024/04/19 09:48:26;;;;;;;0.17;0.17;;;;;;;-139.19;100.00;56970.53;5521974;25;20454;-65
2024/04/19 09:50:56;;;;;;;0.03;0.03;;;;;;;-139.19;100.00;56970.53;5525833;26;20009;-65
2024/04/19 09:53:28;;;;;;;0.20;0.20;;;;;;;-139.19;100.00;56970.53;5525998;25;20480;-65
2024/04/19 09:56:14;;;;;;;0.35;0.35;;;;;;;-139.19;100.00;56970.53;5526431;26;20038;-65
2024/04/19 09:58:40;;;;;;;0.38;0.38;;;;;;;-139.19;100.00;56970.53;5514259;26;19997;-65
2024/04/19 10:01:05;;;;;;;0.15;0.15;;;;;;;-139.19;100.00;56970.53;5490155;26;19990;-65
2024/04/19 10:03:31;;;;;;;0.08;0.08;;;;;;;-139.19;100.00;56970.53;5511661;26;20008;-65
2024/04/19 10:05:57;;;;;;;0.17;0.17;;;;;;;-139.19;100.00;56970.53;5512462;26;20354;-65
2024/04/19 10:08:27;;;;;;;0.32;0.32;;;;;;;-139.19;100.00;56970.53;5489267;26;20065;-65
2024/04/19 10:10:54;;;;;;;0.93;0.93;;;;;;;-139.19;100.00;56970.53;5465828;26;19994;-65
2024/04/19 10:13:21;;;;;;;0.17;0.17;;;;;;;-139.19;100.00;56970.53;5473044;26;20043;-65
2024/04/19 10:15:47;;;;;;;0.20;0.20;;;;;;;-139.19;100.00;56970.53;5485664;26;20011;-65
2024/04/19 10:18:12;;;;;;;0.10;0.10;;;;;;;-139.19;100.00;56970.53;5459927;26;20339;-65
2024/04/19 10:20:40;;;;;;;0.10;0.10;;;;;;;-139.19;100.00;56970.53;5484742;26;20002;-65
2024/04/19 10:23:05;;;;;;;0.52;0.52;;;;;;;-139.19;100.00;56970.53;5457429;26;19999;-65
2024/04/19 10:25:36;;;;;;;0.20;0.20;;;;;;;-139.19;100.00;56970.53;5470941;26;20418;-65
2024/04/19 10:28:01;;;;;;;0.00;0.00;;;;;;;-139.19;100.00;56970.53;5482287;26;20025;-65
2024/04/19 10:30:31;;;;;;;0.10;0.10;;;;;;;-139.19;100.00;56970.53;5457095;26;20002;-65
2024/04/19 10:32:58;;;;;;;0.10;0.10;;;;;;;-139.19;100.00;56970.53;5453479;26;20006;-65
2024/04/19 10:35:23;;;;;;;0.10;0.10;;;;;;;-139.19;100.00;56970.53;5470976;26;20453;-65
2024/04/19 10:37:49;;;;;;;0.15;0.15;;;;;;;-139.19;100.00;56970.53;5473207;26;19999;-65
2024/04/19 10:40:15;;;;;;;0.20;0.20;;;;;;;-139.19;100.00;56970.53;5464423;26;20006;-65
2024/04/19 10:42:41;;;;;;;0.10;0.10;;;;;;;-139.19;100.00;56970.53;5486256;26;19998;-65
2024/04/19 10:45:15;;;;;;;2.38;0.65;;;;;;;-139.19;100.00;56970.53;5485338;26;20014;-65
2024/04/19 10:47:41;;;;;;;0.20;0.20;;;;;;;-139.19;100.00;56970.53;5465410;26;20459;-65
2024/04/19 10:50:07;;;;;;;0.10;0.10;;;;;;;-139.19;100.00;56970.53;5472151;26;20002;-65
2024/04/19 10:52:34;;;;;;;0.32;0.32;;;;;;;-139.19;100.00;56970.53;5457800;26;19999;-65
2024/04/19 10:54:59;;;;;;;0.10;0.10;;;;;;;-139.19;100.00;56970.53;5467200;26;20042;-65
2024/04/19 10:57:29;;;;;;;0.10;0.10;;;;;;;-139.19;100.00;56970.53;5468119;26;20013;-65
2024/04/19 10:59:54;;;;;;;0.13;0.13;;;;;;;-139.19;100.00;56970.53;5510112;26;20016;-65
2024/04/19 11:02:21;;;;;;;0.22;0.20;;;;;;;-139.19;100.00;56970.53;5522043;26;20029;-65
2024/04/19 11:04:48;;;;;;;0.10;0.10;;;;;;;-139.19;100.00;56970.53;5509200;26;20337;-65
2024/04/19 11:07:13;;;;;;;0.08;0.08;;;;;;;-139.19;100.00;56970.53;5515436;26;20065;-65